sensor_id;sensor_type;location;lat;lon;timestamp;pressure;altitude;pressure_sealevel;temperature;humidity
60642;BME280;46837;52.446;-1.930;2023-03-26T00:00:09;98853.55;;;9.60;74.19
60642;BME280;46837;52.446;-1.930;2023-03-26T00:01:10;98855.62;;;9.55;74.33
60642;BME280;46837;52.446;-1.930;2023-03-26T00:02:09;98852.29;;;9.55;74.67
60642;BME280;46837;52.446;-1.930;2023-03-26T00:03:09;98850.72;;;9.58;74.48
60642;BME280;46837;52.446;-1.930;2023-03-26T00:04:09;98854.59;;;9.59;74.34
60642;BME280;46837;52.446;-1.930;2023-03-26T00:05:09;98851.79;;;9.57;74.59
60642;BME280;46837;52.446;-1.930;2023-03-26T00:06:12;98851.41;;;9.57;74.32
60642;BME280;46837;52.446;-1.930;2023-03-26T00:07:09;98847.69;;;9.54;74.21
60642;BME280;46837;52.446;-1.930;2023-03-26T00:08:10;98849.72;;;9.52;74.75
60642;BME280;46837;52.446;-1.930;2023-03-26T00:09:09;98851.50;;;9.54;74.54
60642;BME280;46837;52.446;-1.930;2023-03-26T00:10:09;98847.71;;;9.55;74.33
60642;BME280;46837;52.446;-1.930;2023-03-26T00:11:09;98845.24;;;9.54;74.28
60642;BME280;46837;52.446;-1.930;2023-03-26T00:12:09;98846.38;;;9.51;74.22
60642;BME280;46837;52.446;-1.930;2023-03-26T00:13:09;98844.70;;;9.44;74.36
60642;BME280;46837;52.446;-1.930;2023-03-26T00:14:09;98845.98;;;9.40;74.50
60642;BME280;46837;52.446;-1.930;2023-03-26T00:15:09;98845.97;;;9.36;74.69
60642;BME280;46837;52.446;-1.930;2023-03-26T00:16:12;98850.48;;;9.30;74.95
60642;BME280;46837;52.446;-1.930;2023-03-26T00:17:09;98847.50;;;9.31;75.03
60642;BME280;46837;52.446;-1.930;2023-03-26T00:18:09;98847.17;;;9.27;74.97
60642;BME280;46837;52.446;-1.930;2023-03-26T00:19:09;98844.65;;;9.29;74.98
60642;BME280;46837;52.446;-1.930;2023-03-26T00:20:09;98844.30;;;9.23;75.24
60642;BME280;46837;52.446;-1.930;2023-03-26T00:21:14;98841.55;;;9.27;75.12
60642;BME280;46837;52.446;-1.930;2023-03-26T00:22:09;98841.55;;;9.27;74.92
60642;BME280;46837;52.446;-1.930;2023-03-26T00:23:09;98835.79;;;9.31;74.89
60642;BME280;46837;52.446;-1.930;2023-03-26T00:24:10;98833.96;;;9.29;74.86
60642;BME280;46837;52.446;-1.930;2023-03-26T00:25:09;98830.25;;;9.30;74.89
60642;BME280;46837;52.446;-1.930;2023-03-26T00:26:12;98828.07;;;9.25;75.00
60642;BME280;46837;52.446;-1.930;2023-03-26T00:27:09;98829.59;;;9.21;75.27
60642;BME280;46837;52.446;-1.930;2023-03-26T00:28:09;98835.54;;;9.21;75.37
60642;BME280;46837;52.446;-1.930;2023-03-26T00:29:09;98833.41;;;9.20;75.43
60642;BME280;46837;52.446;-1.930;2023-03-26T00:30:09;98835.41;;;9.18;75.47
60642;BME280;46837;52.446;-1.930;2023-03-26T00:31:11;98832.01;;;9.24;75.43
60642;BME280;46837;52.446;-1.930;2023-03-26T00:32:09;98824.42;;;9.25;75.36
60642;BME280;46837;52.446;-1.930;2023-03-26T00:33:09;98825.58;;;9.27;75.35
60642;BME280;46837;52.446;-1.930;2023-03-26T00:34:09;98820.73;;;9.28;75.37
60642;BME280;46837;52.446;-1.930;2023-03-26T00:35:09;98819.91;;;9.23;75.59
60642;BME280;46837;52.446;-1.930;2023-03-26T00:36:10;98817.79;;;9.28;75.54
60642;BME280;46837;52.446;-1.930;2023-03-26T00:37:09;98818.17;;;9.31;75.45
60642;BME280;46837;52.446;-1.930;2023-03-26T00:38:09;98813.76;;;9.31;75.39
60642;BME280;46837;52.446;-1.930;2023-03-26T00:39:09;98813.75;;;9.36;75.31
60642;BME280;46837;52.446;-1.930;2023-03-26T00:40:09;98812.52;;;9.42;75.00
60642;BME280;46837;52.446;-1.930;2023-03-26T00:41:13;98811.97;;;9.43;74.89
60642;BME280;46837;52.446;-1.930;2023-03-26T00:42:09;98807.45;;;9.42;74.82
60642;BME280;46837;52.446;-1.930;2023-03-26T00:43:13;98809.47;;;9.45;74.80
60642;BME280;46837;52.446;-1.930;2023-03-26T00:44:09;98807.67;;;9.41;74.79
60642;BME280;46837;52.446;-1.930;2023-03-26T00:45:09;98806.31;;;9.45;74.77
60642;BME280;46837;52.446;-1.930;2023-03-26T00:46:09;98806.79;;;9.46;74.64
60642;BME280;46837;52.446;-1.930;2023-03-26T00:47:09;98804.68;;;9.48;74.55
60642;BME280;46837;52.446;-1.930;2023-03-26T00:48:09;98807.12;;;9.50;74.41
60642;BME280;46837;52.446;-1.930;2023-03-26T00:49:12;98804.56;;;9.50;74.33
60642;BME280;46837;52.446;-1.930;2023-03-26T00:50:09;98808.49;;;9.49;74.35
60642;BME280;46837;52.446;-1.930;2023-03-26T00:51:09;98802.06;;;9.49;74.38
60642;BME280;46837;52.446;-1.930;2023-03-26T00:52:10;98799.88;;;9.52;74.28
60642;BME280;46837;52.446;-1.930;2023-03-26T00:53:09;98800.41;;;9.54;74.19
60642;BME280;46837;52.446;-1.930;2023-03-26T00:54:09;98802.57;;;9.55;74.11
60642;BME280;46837;52.446;-1.930;2023-03-26T00:55:09;98799.21;;;9.54;74.05
60642;BME280;46837;52.446;-1.930;2023-03-26T00:56:09;98797.31;;;9.53;73.99
60642;BME280;46837;52.446;-1.930;2023-03-26T00:57:09;98801.12;;;9.46;74.28
60642;BME280;46837;52.446;-1.930;2023-03-26T00:58:09;98800.61;;;9.40;74.56
60642;BME280;46837;52.446;-1.930;2023-03-26T00:59:09;98800.13;;;9.35;74.71
60642;BME280;46837;52.446;-1.930;2023-03-26T01:00:14;98802.53;;;9.36;74.72
60642;BME280;46837;52.446;-1.930;2023-03-26T01:01:13;98796.86;;;9.31;74.82
60642;BME280;46837;52.446;-1.930;2023-03-26T01:02:11;98802.08;;;9.32;74.91
60642;BME280;46837;52.446;-1.930;2023-03-26T01:03:12;98802.32;;;9.30;74.94
60642;BME280;46837;52.446;-1.930;2023-03-26T01:07:13;98793.67;;;9.22;75.54
60642;BME280;46837;52.446;-1.930;2023-03-26T01:09:13;98789.04;;;9.17;75.67
60642;BME280;46837;52.446;-1.930;2023-03-26T01:10:09;98793.14;;;9.20;75.76
60642;BME280;46837;52.446;-1.930;2023-03-26T01:11:16;98788.79;;;9.23;75.51
60642;BME280;46837;52.446;-1.930;2023-03-26T01:12:12;98787.15;;;9.27;75.36
60642;BME280;46837;52.446;-1.930;2023-03-26T01:13:09;98785.72;;;9.29;75.21
60642;BME280;46837;52.446;-1.930;2023-03-26T01:15:10;98787.37;;;9.31;75.01
60642;BME280;46837;52.446;-1.930;2023-03-26T01:16:14;98783.65;;;9.24;75.21
60642;BME280;46837;52.446;-1.930;2023-03-26T01:17:09;98781.95;;;9.22;75.42
60642;BME280;46837;52.446;-1.930;2023-03-26T01:18:11;98780.90;;;9.19;75.45
60642;BME280;46837;52.446;-1.930;2023-03-26T01:20:20;98779.66;;;9.09;75.77
60642;BME280;46837;52.446;-1.930;2023-03-26T01:21:10;98779.71;;;9.09;75.87
60642;BME280;46837;52.446;-1.930;2023-03-26T01:22:12;98779.14;;;9.04;76.21
60642;BME280;46837;52.446;-1.930;2023-03-26T01:23:09;98778.83;;;9.06;76.11
60642;BME280;46837;52.446;-1.930;2023-03-26T01:24:09;98778.87;;;9.08;75.98
60642;BME280;46837;52.446;-1.930;2023-03-26T01:25:09;98778.10;;;9.09;75.89
60642;BME280;46837;52.446;-1.930;2023-03-26T01:27:17;98778.70;;;9.01;76.37
60642;BME280;46837;52.446;-1.930;2023-03-26T01:28:10;98779.65;;;8.94;76.67
60642;BME280;46837;52.446;-1.930;2023-03-26T01:31:15;98775.62;;;8.93;76.46
60642;BME280;46837;52.446;-1.930;2023-03-26T01:32:17;98779.49;;;8.94;76.42
60642;BME280;46837;52.446;-1.930;2023-03-26T01:35:16;98778.95;;;8.89;76.88
60642;BME280;46837;52.446;-1.930;2023-03-26T01:37:24;98773.81;;;8.87;77.14
60642;BME280;46837;52.446;-1.930;2023-03-26T01:40:16;98766.58;;;8.88;77.40
60642;BME280;46837;52.446;-1.930;2023-03-26T01:41:16;98764.47;;;8.92;77.30
60642;BME280;46837;52.446;-1.930;2023-03-26T01:42:16;98762.66;;;8.94;77.15
60642;BME280;46837;52.446;-1.930;2023-03-26T01:43:18;98765.82;;;8.97;77.03
60642;BME280;46837;52.446;-1.930;2023-03-26T01:45:16;98767.93;;;9.02;76.97
60642;BME280;46837;52.446;-1.930;2023-03-26T01:46:10;98766.14;;;9.06;76.76
60642;BME280;46837;52.446;-1.930;2023-03-26T01:47:09;98771.25;;;9.07;76.73
60642;BME280;46837;52.446;-1.930;2023-03-26T01:48:09;98768.03;;;9.08;76.66
60642;BME280;46837;52.446;-1.930;2023-03-26T01:49:09;98771.19;;;9.12;76.62
60642;BME280;46837;52.446;-1.930;2023-03-26T01:50:09;98766.63;;;9.14;76.48
60642;BME280;46837;52.446;-1.930;2023-03-26T01:51:09;98769.95;;;9.14;76.52
60642;BME280;46837;52.446;-1.930;2023-03-26T01:52:16;98766.62;;;9.15;76.44
60642;BME280;46837;52.446;-1.930;2023-03-26T01:53:10;98764.29;;;9.13;76.47
60642;BME280;46837;52.446;-1.930;2023-03-26T01:54:12;98765.96;;;9.16;76.52
60642;BME280;46837;52.446;-1.930;2023-03-26T01:55:09;98764.57;;;9.13;76.56
60642;BME280;46837;52.446;-1.930;2023-03-26T01:58:17;98762.05;;;9.23;76.41
60642;BME280;46837;52.446;-1.930;2023-03-26T02:00:19;98761.09;;;9.24;76.31
60642;BME280;46837;52.446;-1.930;2023-03-26T02:03:24;98757.82;;;9.24;76.40
60642;BME280;46837;52.446;-1.930;2023-03-26T02:07:14;98753.67;;;9.21;76.64
60642;BME280;46837;52.446;-1.930;2023-03-26T02:09:13;98747.93;;;9.22;76.59
60642;BME280;46837;52.446;-1.930;2023-03-26T02:10:14;98742.88;;;9.21;76.67
60642;BME280;46837;52.446;-1.930;2023-03-26T02:11:12;98746.86;;;9.20;76.75
60642;BME280;46837;52.446;-1.930;2023-03-26T02:12:09;98739.65;;;9.18;76.84
60642;BME280;46837;52.446;-1.930;2023-03-26T02:13:09;98744.62;;;9.21;76.80
60642;BME280;46837;52.446;-1.930;2023-03-26T02:14:09;98741.20;;;9.24;76.70
60642;BME280;46837;52.446;-1.930;2023-03-26T02:15:09;98734.88;;;9.24;76.61
60642;BME280;46837;52.446;-1.930;2023-03-26T02:16:10;98738.19;;;9.17;76.88
60642;BME280;46837;52.446;-1.930;2023-03-26T02:17:11;98732.99;;;9.12;77.15
60642;BME280;46837;52.446;-1.930;2023-03-26T02:18:09;98734.04;;;9.09;77.29
60642;BME280;46837;52.446;-1.930;2023-03-26T02:19:11;98736.87;;;9.07;77.55
60642;BME280;46837;52.446;-1.930;2023-03-26T02:20:11;98733.52;;;9.05;77.55
60642;BME280;46837;52.446;-1.930;2023-03-26T02:21:14;98735.27;;;9.08;77.63
60642;BME280;46837;52.446;-1.930;2023-03-26T02:22:12;98730.76;;;9.11;77.45
60642;BME280;46837;52.446;-1.930;2023-03-26T02:23:09;98731.37;;;9.10;77.44
60642;BME280;46837;52.446;-1.930;2023-03-26T02:24:09;98733.43;;;9.07;77.63
60642;BME280;46837;52.446;-1.930;2023-03-26T02:25:10;98731.04;;;9.11;77.47
60642;BME280;46837;52.446;-1.930;2023-03-26T02:26:09;98730.93;;;9.11;77.45
60642;BME280;46837;52.446;-1.930;2023-03-26T02:27:09;98732.70;;;9.05;77.77
60642;BME280;46837;52.446;-1.930;2023-03-26T02:28:09;98734.78;;;9.04;77.88
60642;BME280;46837;52.446;-1.930;2023-03-26T02:29:09;98734.03;;;9.02;78.01
60642;BME280;46837;52.446;-1.930;2023-03-26T02:30:12;98730.58;;;8.97;78.17
60642;BME280;46837;52.446;-1.930;2023-03-26T02:31:09;98730.16;;;8.95;78.43
60642;BME280;46837;52.446;-1.930;2023-03-26T02:32:09;98726.77;;;9.01;78.12
60642;BME280;46837;52.446;-1.930;2023-03-26T02:33:09;98728.51;;;9.04;77.95
60642;BME280;46837;52.446;-1.930;2023-03-26T02:34:09;98722.96;;;9.08;77.83
60642;BME280;46837;52.446;-1.930;2023-03-26T02:35:09;98718.11;;;9.08;77.69
60642;BME280;46837;52.446;-1.930;2023-03-26T02:36:09;98715.22;;;9.05;77.95
60642;BME280;46837;52.446;-1.930;2023-03-26T02:37:09;98722.56;;;9.02;78.08
60642;BME280;46837;52.446;-1.930;2023-03-26T02:38:09;98718.16;;;9.04;78.08
60642;BME280;46837;52.446;-1.930;2023-03-26T02:39:10;98718.16;;;9.01;78.12
60642;BME280;46837;52.446;-1.930;2023-03-26T02:40:12;98716.36;;;9.02;78.14
60642;BME280;46837;52.446;-1.930;2023-03-26T02:41:09;98714.18;;;9.04;78.10
60642;BME280;46837;52.446;-1.930;2023-03-26T02:42:09;98713.37;;;9.08;77.87
60642;BME280;46837;52.446;-1.930;2023-03-26T02:43:09;98711.04;;;9.11;77.76
60642;BME280;46837;52.446;-1.930;2023-03-26T02:44:09;98709.79;;;9.13;77.61
60642;BME280;46837;52.446;-1.930;2023-03-26T02:45:09;98705.81;;;9.14;77.53
60642;BME280;46837;52.446;-1.930;2023-03-26T02:46:09;98706.18;;;9.12;77.58
60642;BME280;46837;52.446;-1.930;2023-03-26T02:47:09;98704.54;;;9.12;77.56
60642;BME280;46837;52.446;-1.930;2023-03-26T02:48:09;98703.08;;;9.15;77.51
60642;BME280;46837;52.446;-1.930;2023-03-26T02:49:09;98703.47;;;9.14;77.47
60642;BME280;46837;52.446;-1.930;2023-03-26T02:50:09;98699.86;;;9.15;77.44
60642;BME280;46837;52.446;-1.930;2023-03-26T02:51:09;98699.72;;;9.16;77.37
60642;BME280;46837;52.446;-1.930;2023-03-26T02:52:10;98700.30;;;9.19;77.31
60642;BME280;46837;52.446;-1.930;2023-03-26T02:53:09;98696.02;;;9.20;77.27
60642;BME280;46837;52.446;-1.930;2023-03-26T02:54:09;98696.38;;;9.14;77.84
60642;BME280;46837;52.446;-1.930;2023-03-26T02:55:09;98690.88;;;9.10;78.04
60642;BME280;46837;52.446;-1.930;2023-03-26T02:56:09;98692.83;;;9.08;78.16
60642;BME280;46837;52.446;-1.930;2023-03-26T02:57:09;98690.87;;;9.08;78.04
60642;BME280;46837;52.446;-1.930;2023-03-26T02:58:09;98688.03;;;9.12;77.89
60642;BME280;46837;52.446;-1.930;2023-03-26T02:59:09;98684.32;;;9.12;77.89
60642;BME280;46837;52.446;-1.930;2023-03-26T03:00:13;98684.71;;;9.15;77.75
60642;BME280;46837;52.446;-1.930;2023-03-26T03:01:09;98681.45;;;9.18;77.59
60642;BME280;46837;52.446;-1.930;2023-03-26T03:02:09;98681.02;;;9.20;77.44
60642;BME280;46837;52.446;-1.930;2023-03-26T03:03:09;98682.86;;;9.22;77.36
60642;BME280;46837;52.446;-1.930;2023-03-26T03:04:12;98684.52;;;9.23;77.32
60642;BME280;46837;52.446;-1.930;2023-03-26T03:05:09;98681.25;;;9.16;77.61
60642;BME280;46837;52.446;-1.930;2023-03-26T03:06:09;98680.03;;;9.11;77.87
60642;BME280;46837;52.446;-1.930;2023-03-26T03:07:09;98678.75;;;8.98;78.65
60642;BME280;46837;52.446;-1.930;2023-03-26T03:08:09;98680.03;;;9.03;78.35
60642;BME280;46837;52.446;-1.930;2023-03-26T03:09:09;98675.39;;;9.04;78.18
60642;BME280;46837;52.446;-1.930;2023-03-26T03:10:10;98674.10;;;9.06;78.12
60642;BME280;46837;52.446;-1.930;2023-03-26T03:11:10;98675.61;;;9.07;78.06
60642;BME280;46837;52.446;-1.930;2023-03-26T03:12:09;98675.72;;;9.04;78.12
60642;BME280;46837;52.446;-1.930;2023-03-26T03:13:09;98675.30;;;9.06;78.08
60642;BME280;46837;52.446;-1.930;2023-03-26T03:14:09;98676.55;;;9.07;78.10
60642;BME280;46837;52.446;-1.930;2023-03-26T03:15:10;98675.33;;;8.97;78.47
60642;BME280;46837;52.446;-1.930;2023-03-26T03:16:09;98676.64;;;8.93;78.78
60642;BME280;46837;52.446;-1.930;2023-03-26T03:17:09;98675.61;;;8.93;78.74
60642;BME280;46837;52.446;-1.930;2023-03-26T03:18:09;98681.04;;;8.90;78.85
60642;BME280;46837;52.446;-1.930;2023-03-26T03:19:09;98679.26;;;8.89;78.98
60642;BME280;46837;52.446;-1.930;2023-03-26T03:20:11;98679.07;;;8.84;79.33
60642;BME280;46837;52.446;-1.930;2023-03-26T03:21:09;98676.84;;;8.78;79.59
60642;BME280;46837;52.446;-1.930;2023-03-26T03:22:09;98675.37;;;8.83;79.58
60642;BME280;46837;52.446;-1.930;2023-03-26T03:23:09;98677.12;;;8.82;79.57
60642;BME280;46837;52.446;-1.930;2023-03-26T03:24:09;98674.92;;;8.80;79.86
60642;BME280;46837;52.446;-1.930;2023-03-26T03:25:10;98676.29;;;8.83;79.68
60642;BME280;46837;52.446;-1.930;2023-03-26T03:26:13;98675.10;;;8.87;79.57
60642;BME280;46837;52.446;-1.930;2023-03-26T03:27:09;98676.08;;;8.91;79.43
60642;BME280;46837;52.446;-1.930;2023-03-26T03:28:09;98678.07;;;8.95;79.30
60642;BME280;46837;52.446;-1.930;2023-03-26T03:29:09;98675.62;;;8.95;79.16
60642;BME280;46837;52.446;-1.930;2023-03-26T03:30:10;98673.55;;;8.95;79.12
60642;BME280;46837;52.446;-1.930;2023-03-26T03:31:09;98678.05;;;8.97;79.14
60642;BME280;46837;52.446;-1.930;2023-03-26T03:32:09;98679.75;;;8.96;79.34
60642;BME280;46837;52.446;-1.930;2023-03-26T03:33:09;98681.27;;;8.88;79.78
60642;BME280;46837;52.446;-1.930;2023-03-26T03:34:09;98681.20;;;8.86;79.87
60642;BME280;46837;52.446;-1.930;2023-03-26T03:35:09;98680.05;;;8.83;80.07
60642;BME280;46837;52.446;-1.930;2023-03-26T03:36:12;98684.55;;;8.73;80.49
60642;BME280;46837;52.446;-1.930;2023-03-26T03:37:09;98685.44;;;8.71;80.84
60642;BME280;46837;52.446;-1.930;2023-03-26T03:38:09;98686.14;;;8.71;80.95
60642;BME280;46837;52.446;-1.930;2023-03-26T03:39:09;98688.87;;;8.76;80.68
60642;BME280;46837;52.446;-1.930;2023-03-26T03:40:09;98686.62;;;8.72;80.99
60642;BME280;46837;52.446;-1.930;2023-03-26T03:41:09;98688.27;;;8.75;80.85
60642;BME280;46837;52.446;-1.930;2023-03-26T03:42:09;98682.45;;;8.79;80.79
60642;BME280;46837;52.446;-1.930;2023-03-26T03:43:09;98683.82;;;8.86;80.65
60642;BME280;46837;52.446;-1.930;2023-03-26T03:44:09;98686.11;;;8.89;80.32
60642;BME280;46837;52.446;-1.930;2023-03-26T03:45:09;98682.01;;;8.87;80.43
60642;BME280;46837;52.446;-1.930;2023-03-26T03:46:09;98689.14;;;8.76;81.05
60642;BME280;46837;52.446;-1.930;2023-03-26T03:47:09;98687.88;;;8.77;81.18
60642;BME280;46837;52.446;-1.930;2023-03-26T03:48:09;98689.63;;;8.84;80.97
60642;BME280;46837;52.446;-1.930;2023-03-26T03:49:09;98687.25;;;8.87;80.79
60642;BME280;46837;52.446;-1.930;2023-03-26T03:50:09;98689.10;;;8.91;80.70
60642;BME280;46837;52.446;-1.930;2023-03-26T03:51:09;98685.80;;;8.92;80.67
60642;BME280;46837;52.446;-1.930;2023-03-26T03:52:09;98690.26;;;8.97;80.61
60642;BME280;46837;52.446;-1.930;2023-03-26T03:53:09;98687.61;;;9.03;80.32
60642;BME280;46837;52.446;-1.930;2023-03-26T03:54:09;98684.98;;;9.08;80.01
60642;BME280;46837;52.446;-1.930;2023-03-26T03:55:09;98685.52;;;9.08;79.83
60642;BME280;46837;52.446;-1.930;2023-03-26T03:56:12;98686.79;;;9.02;80.11
60642;BME280;46837;52.446;-1.930;2023-03-26T03:57:09;98686.39;;;9.05;80.19
60642;BME280;46837;52.446;-1.930;2023-03-26T03:58:11;98685.15;;;9.03;80.26
60642;BME280;46837;52.446;-1.930;2023-03-26T03:59:09;98683.58;;;9.06;80.05
60642;BME280;46837;52.446;-1.930;2023-03-26T04:00:09;98686.56;;;9.04;80.21
60642;BME280;46837;52.446;-1.930;2023-03-26T04:01:09;98683.43;;;9.09;80.12
60642;BME280;46837;52.446;-1.930;2023-03-26T04:02:09;98684.05;;;9.12;79.83
60642;BME280;46837;52.446;-1.930;2023-03-26T04:03:09;98684.48;;;9.01;80.19
60642;BME280;46837;52.446;-1.930;2023-03-26T04:04:09;98682.69;;;9.01;80.46
60642;BME280;46837;52.446;-1.930;2023-03-26T04:05:09;98683.71;;;8.90;80.71
60642;BME280;46837;52.446;-1.930;2023-03-26T04:06:09;98676.58;;;8.90;80.85
60642;BME280;46837;52.446;-1.930;2023-03-26T04:07:09;98678.97;;;8.90;80.88
60642;BME280;46837;52.446;-1.930;2023-03-26T04:08:09;98677.62;;;8.93;80.76
60642;BME280;46837;52.446;-1.930;2023-03-26T04:09:09;98679.02;;;8.87;80.84
60642;BME280;46837;52.446;-1.930;2023-03-26T04:10:11;98680.70;;;8.84;81.10
60642;BME280;46837;52.446;-1.930;2023-03-26T04:11:09;98680.18;;;8.85;81.10
60642;BME280;46837;52.446;-1.930;2023-03-26T04:12:09;98681.97;;;8.86;81.15
60642;BME280;46837;52.446;-1.930;2023-03-26T04:13:10;98680.72;;;8.86;81.08
60642;BME280;46837;52.446;-1.930;2023-03-26T04:14:09;98686.79;;;8.77;81.73
60642;BME280;46837;52.446;-1.930;2023-03-26T04:15:09;98678.64;;;8.83;81.51
60642;BME280;46837;52.446;-1.930;2023-03-26T04:16:09;98679.50;;;8.80;81.70
60642;BME280;46837;52.446;-1.930;2023-03-26T04:17:09;98682.41;;;8.81;81.52
60642;BME280;46837;52.446;-1.930;2023-03-26T04:18:12;98681.13;;;8.76;81.85
60642;BME280;46837;52.446;-1.930;2023-03-26T04:19:09;98676.64;;;8.81;81.55
60642;BME280;46837;52.446;-1.930;2023-03-26T04:20:09;98680.37;;;8.80;81.63
60642;BME280;46837;52.446;-1.930;2023-03-26T04:21:09;98677.27;;;8.84;81.55
60642;BME280;46837;52.446;-1.930;2023-03-26T04:22:09;98677.38;;;8.87;81.50
60642;BME280;46837;52.446;-1.930;2023-03-26T04:23:09;98676.75;;;8.88;81.33
60642;BME280;46837;52.446;-1.930;2023-03-26T04:24:09;98680.28;;;8.86;81.48
60642;BME280;46837;52.446;-1.930;2023-03-26T04:25:09;98682.84;;;8.82;81.66
60642;BME280;46837;52.446;-1.930;2023-03-26T04:26:12;98683.82;;;8.82;81.91
60642;BME280;46837;52.446;-1.930;2023-03-26T04:27:12;98679.03;;;8.86;81.83
60642;BME280;46837;52.446;-1.930;2023-03-26T04:28:15;98684.20;;;8.78;82.23
60642;BME280;46837;52.446;-1.930;2023-03-26T04:29:09;98684.20;;;8.83;82.07
60642;BME280;46837;52.446;-1.930;2023-03-26T04:30:10;98683.12;;;8.81;82.25
60642;BME280;46837;52.446;-1.930;2023-03-26T04:31:09;98682.62;;;8.86;81.87
60642;BME280;46837;52.446;-1.930;2023-03-26T04:32:18;98681.59;;;8.82;82.03
60642;BME280;46837;52.446;-1.930;2023-03-26T04:33:09;98681.04;;;8.87;81.89
60642;BME280;46837;52.446;-1.930;2023-03-26T04:35:12;98688.93;;;8.79;82.31
60642;BME280;46837;52.446;-1.930;2023-03-26T04:36:09;98682.83;;;8.83;82.34
60642;BME280;46837;52.446;-1.930;2023-03-26T04:37:09;98683.83;;;8.85;82.27
60642;BME280;46837;52.446;-1.930;2023-03-26T04:38:10;98681.82;;;8.88;82.09
60642;BME280;46837;52.446;-1.930;2023-03-26T04:39:09;98683.49;;;8.90;82.04
60642;BME280;46837;52.446;-1.930;2023-03-26T04:40:15;98686.48;;;8.91;81.90
60642;BME280;46837;52.446;-1.930;2023-03-26T04:41:10;98685.85;;;8.93;81.88
60642;BME280;46837;52.446;-1.930;2023-03-26T04:42:09;98685.37;;;8.95;81.70
60642;BME280;46837;52.446;-1.930;2023-03-26T04:43:11;98689.01;;;8.88;81.75
60642;BME280;46837;52.446;-1.930;2023-03-26T04:44:09;98683.29;;;8.89;81.89
60642;BME280;46837;52.446;-1.930;2023-03-26T04:45:09;98687.91;;;8.93;81.87
60642;BME280;46837;52.446;-1.930;2023-03-26T04:46:09;98688.61;;;8.82;82.08
60642;BME280;46837;52.446;-1.930;2023-03-26T04:47:09;98691.71;;;8.78;82.78
60642;BME280;46837;52.446;-1.930;2023-03-26T04:48:09;98690.51;;;8.79;82.78
60642;BME280;46837;52.446;-1.930;2023-03-26T04:49:09;98693.45;;;8.83;82.63
60642;BME280;46837;52.446;-1.930;2023-03-26T04:50:09;98686.70;;;8.87;82.40
60642;BME280;46837;52.446;-1.930;2023-03-26T04:51:12;98687.54;;;8.88;82.37
60642;BME280;46837;52.446;-1.930;2023-03-26T04:52:09;98688.22;;;8.83;82.32
60642;BME280;46837;52.446;-1.930;2023-03-26T04:53:10;98692.53;;;8.82;82.44
60642;BME280;46837;52.446;-1.930;2023-03-26T04:54:09;98689.88;;;8.81;82.52
60642;BME280;46837;52.446;-1.930;2023-03-26T04:55:17;98693.56;;;8.79;82.70
60642;BME280;46837;52.446;-1.930;2023-03-26T04:56:16;98695.03;;;8.75;82.77
60642;BME280;46837;52.446;-1.930;2023-03-26T04:57:12;98691.10;;;8.71;82.77
60642;BME280;46837;52.446;-1.930;2023-03-26T04:58:09;98694.72;;;8.70;83.13
60642;BME280;46837;52.446;-1.930;2023-03-26T04:59:09;98696.92;;;8.72;83.09
60642;BME280;46837;52.446;-1.930;2023-03-26T05:00:15;98691.80;;;8.72;82.89
60642;BME280;46837;52.446;-1.930;2023-03-26T05:01:09;98695.07;;;8.71;82.88
60642;BME280;46837;52.446;-1.930;2023-03-26T05:02:09;98694.18;;;8.70;83.02
60642;BME280;46837;52.446;-1.930;2023-03-26T05:03:11;98698.16;;;8.69;82.96
60642;BME280;46837;52.446;-1.930;2023-03-26T05:04:09;98698.37;;;8.65;83.33
60642;BME280;46837;52.446;-1.930;2023-03-26T05:05:09;98702.95;;;8.69;83.24
60642;BME280;46837;52.446;-1.930;2023-03-26T05:06:09;98698.66;;;8.67;83.12
60642;BME280;46837;52.446;-1.930;2023-03-26T05:07:09;98701.64;;;8.65;83.30
60642;BME280;46837;52.446;-1.930;2023-03-26T05:08:09;98705.95;;;8.64;83.53
60642;BME280;46837;52.446;-1.930;2023-03-26T05:09:09;98706.28;;;8.64;83.60
60642;BME280;46837;52.446;-1.930;2023-03-26T05:10:13;98711.17;;;8.48;83.92
60642;BME280;46837;52.446;-1.930;2023-03-26T05:11:13;98708.48;;;8.45;83.89
60642;BME280;46837;52.446;-1.930;2023-03-26T05:12:09;98704.68;;;8.44;83.92
60642;BME280;46837;52.446;-1.930;2023-03-26T05:13:09;98710.02;;;8.35;83.93
60642;BME280;46837;52.446;-1.930;2023-03-26T05:14:09;98714.40;;;8.29;83.91
60642;BME280;46837;52.446;-1.930;2023-03-26T05:15:09;98715.66;;;8.23;83.99
60642;BME280;46837;52.446;-1.930;2023-03-26T05:16:09;98719.05;;;8.17;84.08
60642;BME280;46837;52.446;-1.930;2023-03-26T05:17:09;98718.04;;;8.09;84.49
60642;BME280;46837;52.446;-1.930;2023-03-26T05:18:09;98720.41;;;8.01;84.73
60642;BME280;46837;52.446;-1.930;2023-03-26T05:19:09;98728.97;;;8.04;84.76
60642;BME280;46837;52.446;-1.930;2023-03-26T05:21:09;98726.95;;;7.93;85.22
60642;BME280;46837;52.446;-1.930;2023-03-26T05:22:09;98726.11;;;7.93;85.26
60642;BME280;46837;52.446;-1.930;2023-03-26T05:23:09;98726.44;;;7.91;85.44
60642;BME280;46837;52.446;-1.930;2023-03-26T05:24:09;98727.04;;;7.90;85.24
60642;BME280;46837;52.446;-1.930;2023-03-26T05:25:09;98727.82;;;7.89;85.38
60642;BME280;46837;52.446;-1.930;2023-03-26T05:26:09;98729.57;;;7.89;85.34
60642;BME280;46837;52.446;-1.930;2023-03-26T05:27:14;98733.24;;;7.85;85.57
60642;BME280;46837;52.446;-1.930;2023-03-26T05:28:09;98731.48;;;7.81;85.61
60642;BME280;46837;52.446;-1.930;2023-03-26T05:29:09;98735.24;;;7.75;85.63
60642;BME280;46837;52.446;-1.930;2023-03-26T05:30:09;98736.41;;;7.70;85.75
60642;BME280;46837;52.446;-1.930;2023-03-26T05:31:09;98734.87;;;7.66;85.68
60642;BME280;46837;52.446;-1.930;2023-03-26T05:32:09;98739.98;;;7.59;85.93
60642;BME280;46837;52.446;-1.930;2023-03-26T05:33:09;98737.40;;;7.48;86.26
60642;BME280;46837;52.446;-1.930;2023-03-26T05:34:09;98738.84;;;7.47;86.43
60642;BME280;46837;52.446;-1.930;2023-03-26T05:35:09;98735.91;;;7.44;86.40
60642;BME280;46837;52.446;-1.930;2023-03-26T05:36:09;98739.09;;;7.41;86.66
60642;BME280;46837;52.446;-1.930;2023-03-26T05:37:09;98740.12;;;7.43;86.48
60642;BME280;46837;52.446;-1.930;2023-03-26T05:38:09;98737.84;;;7.42;86.58
60642;BME280;46837;52.446;-1.930;2023-03-26T05:39:09;98741.58;;;7.42;86.79
60642;BME280;46837;52.446;-1.930;2023-03-26T05:40:13;98743.32;;;7.44;86.54
60642;BME280;46837;52.446;-1.930;2023-03-26T05:41:09;98744.25;;;7.35;86.82
60642;BME280;46837;52.446;-1.930;2023-03-26T05:42:09;98749.62;;;7.29;86.76
60642;BME280;46837;52.446;-1.930;2023-03-26T05:43:09;98747.23;;;7.27;87.01